This is the latest recevied weather packets stored in our database for station/object KC7YCE. If no packets are shown the sender has not sent any weather packets the latest 10 day(s).
| Time | Temp. | Humidity | Pressure | Rain* | Wind** | Luminosity | Snow |
|---|---|---|---|---|---|---|---|
| 1777703220 | -1.67° C | 60% | 1025.6 hPa | 0 mm | - | - | - |
| 1777702620 | -1.67° C | 58% | 1025.6 hPa | 0 mm | - | - | - |
| 1777701420 | -1.67° C | 58% | 1025.5 hPa | 0 mm | - | - | - |
| 1777699589 | -1.11° C | 55% | 1025.5 hPa | 0 mm | - | - | - |
| 1777698989 | -1.11° C | 55% | 1025.4 hPa | 0 mm | - | - | - |
| 1777698389 | -1.11° C | 55% | 1025.4 hPa | 0 mm | - | - | - |
| 1777697789 | -1.11° C | 55% | 1025.3 hPa | 0 mm | - | - | - |
| 1777697189 | -1.67° C | 55% | 1025.3 hPa | 0 mm | - | - | - |
| 1777695389 | -1.11° C | 53% | 1025.1 hPa | 0 mm | - | - | - |
| 1777694789 | -1.11° C | 50% | 1025 hPa | 0 mm | - | - | - |
| 1777694159 | -0.56° C | 49% | 1024.8 hPa | 0 mm | - | - | - |
| 1777693559 | 0.56° C | 46% | 1024.7 hPa | 0 mm | - | - | - |
| 1777692959 | 1.11° C | 44% | 1024.6 hPa | 0 mm | - | - | - |
| 1777692328 | 2.22° C | 42% | 1024.4 hPa | 0 mm | - | - | - |
| 1777689928 | 5° C | 30% | 1023.9 hPa | 0 mm | - | - | - |
| 1777688728 | 6.11° C | 28% | 1023.8 hPa | 0 mm | - | - | - |
| 1777687528 | 7.22° C | 27% | 1023.6 hPa | 0 mm | - | - | - |
| 1777686898 | 7.78° C | 25% | 1023.5 hPa | 0 mm | - | - | - |
| 1777686298 | 7.78° C | 25% | 1023.4 hPa | 0 mm | - | - | - |
| 1777685698 | 8.33° C | 23% | 1023.4 hPa | 0 mm | - | - | - |
| 1777685099 | 8.89° C | 23% | 1023.2 hPa | 0 mm | - | - | - |
| 1777684498 | 8.89° C | 22% | 1023.1 hPa | 0 mm | - | - | - |
| 1777683899 | 9.44° C | 23% | 1023.1 hPa | 0 mm | - | - | - |
| 1777682638 | 10° C | 22% | 1022.9 hPa | 0 mm | - | - | - |
| 1777682038 | 10.56° C | 22% | 1023 hPa | 0 mm | - | - | - |
* Rain latest hour (hover to see other rain measurements)
** Current wind speed in m/s (hover to see current wind gust speed)